Terminal Aerodrome Forecast
Issued by NWS

Home | Current Version | Previous Version | Text Only | Print | Product List | Glossary On
Versions: 1 2 3 4 5 6 7 8 9 10 11 12 13 14 15 16 17 18 19 20 21 22 23 24 25 26 27 28 29 30 31 32 33 34 35 36 37 38 39 40 41 42 43 44 45 46 47 48 49 50
723
FTUS43 KLOT 242103 AAA
TAFGYY
TAF AMD
KGYY 242103Z 2421/2518 VRB05KT P6SM OVC015
     FM242200 06006KT P6SM OVC015
     FM250100 11009KT 6SM -RA BR OVC018
     FM250400 12007KT P6SM VCSH OVC012
     FM250900 12012G16KT 3SM -SHRA VCTS OVC007CB
      TEMPO 2509/2512 1 1/2SM -SHRA OVC005
     FM251200 15012G18KT 6SM -RA BR OVC006=

USA.gov is the U.S. government's official web portal to all federal, state and local government web resources and services.